Terminal Aerodrome Forecast
Issued by NWS

Home | Current Version | Previous Version | Text Only | Print | Product List | Glossary On
Versions: 1 2 3 4 5 6 7 8 9 10 11 12 13 14 15 16 17 18 19 20 21 22 23 24 25 26 27 28 29 30 31 32 33 34 35 36
000
FTUS43 KGLD 191505 AAA
TAFMCK
TAF AMD
KMCK 191505Z 1915/2012 23004KT 1/4SM FG VV002
     FM191700 20004KT 1/2SM FZFG OVC003
     FM191800 21004KT 3SM BR OVC003
     FM192000 18004KT P6SM SCT015
     FM200300 VRB04KT P6SM SCT010=

USA.gov is the U.S. government's official web portal to all federal, state and local government web resources and services.